aviador You're here:

KDLF Decoded Metar

DEL RIO in TX, USA
Report Time2018-07-23 14:56:00
UTC Time2018-07-23 15:44:25
Flight Rules vfr VFR
Wind140° at 06 kt
W.Decomp.*RWY 13: 6.0 kt HW 0.3 kt RCW
W.Rank140° ranks 2
Current wind is below 140° avg. (9.6)
Visibility9999 m
Phenomena:N/A
Clouds:Few 250 Hf
Expected CloudBase > 4,400 ft AGL from Temp-Dew spread
CeilingNone
Temp31°C (ISA +18)
Dew Point20°C (52% RH)
Heat Index33.0°C
QNH1014 hPa
Density Alt3,435 ft
Elevation1,083 ft
Report Wrong Elevation
Raw Report
KDLF 231456Z 14006KT 10SM FEW250 31/20 A2993 RMK AO2A SLP120
T03080204 52011=

Extra information for KDLF:More info

Metar Taf Metar & Taf Last 4 Metars F.Rules Stats Wind Profile Meteogram Temp Stats Airport Information Weather charts Add Link Nearby VenuesMetar ALERT Operation Metar Decoded Social comments

AIRNAV info for KDLF